sensor_id;sensor_type;location;lat;lon;timestamp;P1;durP1;ratioP1;P2;durP2;ratioP2
74042;SDS011;62384;53.600;10.040;2023-06-04T00:01:32;7.22;;;1.77;;
74042;SDS011;62384;53.600;10.040;2023-06-04T00:03:57;3.45;;;1.58;;
74042;SDS011;62384;53.600;10.040;2023-06-04T00:06:22;4.13;;;2.03;;
74042;SDS011;62384;53.600;10.040;2023-06-04T00:08:48;4.63;;;1.85;;
74042;SDS011;62384;53.600;10.040;2023-06-04T00:11:13;2.85;;;1.98;;
74042;SDS011;62384;53.600;10.040;2023-06-04T00:13:38;4.65;;;1.65;;
74042;SDS011;62384;53.600;10.040;2023-06-04T00:16:04;3.38;;;1.90;;
74042;SDS011;62384;53.600;10.040;2023-06-04T00:18:29;4.35;;;2.17;;
74042;SDS011;62384;53.600;10.040;2023-06-04T00:20:54;3.10;;;1.52;;
74042;SDS011;62384;53.600;10.040;2023-06-04T00:23:20;3.72;;;1.80;;
74042;SDS011;62384;53.600;10.040;2023-06-04T00:25:45;5.78;;;1.98;;
74042;SDS011;62384;53.600;10.040;2023-06-04T00:28:10;3.30;;;2.00;;
74042;SDS011;62384;53.600;10.040;2023-06-04T00:30:36;6.07;;;2.22;;
74042;SDS011;62384;53.600;10.040;2023-06-04T00:33:01;2.67;;;1.65;;
74042;SDS011;62384;53.600;10.040;2023-06-04T00:35:26;4.28;;;1.98;;
74042;SDS011;62384;53.600;10.040;2023-06-04T00:37:57;3.83;;;1.98;;
74042;SDS011;62384;53.600;10.040;2023-06-04T00:40:23;7.05;;;1.90;;
74042;SDS011;62384;53.600;10.040;2023-06-04T00:42:48;9.48;;;2.33;;
74042;SDS011;62384;53.600;10.040;2023-06-04T00:45:14;3.88;;;2.25;;
74042;SDS011;62384;53.600;10.040;2023-06-04T00:47:41;9.07;;;2.78;;
74042;SDS011;62384;53.600;10.040;2023-06-04T00:50:06;3.42;;;2.05;;
74042;SDS011;62384;53.600;10.040;2023-06-04T00:52:32;3.63;;;1.65;;
74042;SDS011;62384;53.600;10.040;2023-06-04T00:54:58;3.25;;;2.65;;
74042;SDS011;62384;53.600;10.040;2023-06-04T00:57:24;3.72;;;1.90;;
74042;SDS011;62384;53.600;10.040;2023-06-04T00:59:49;3.70;;;2.05;;
74042;SDS011;62384;53.600;10.040;2023-06-04T01:02:18;3.15;;;1.98;;
74042;SDS011;62384;53.600;10.040;2023-06-04T01:04:55;3.97;;;1.90;;
74042;SDS011;62384;53.600;10.040;2023-06-04T01:07:33;4.38;;;2.72;;
74042;SDS011;62384;53.600;10.040;2023-06-04T01:10:00;5.03;;;2.00;;
74042;SDS011;62384;53.600;10.040;2023-06-04T01:12:26;3.78;;;2.45;;
74042;SDS011;62384;53.600;10.040;2023-06-04T01:14:51;5.90;;;2.08;;
74042;SDS011;62384;53.600;10.040;2023-06-04T01:17:21;4.82;;;2.47;;
74042;SDS011;62384;53.600;10.040;2023-06-04T01:25:31;3.42;;;1.92;;
74042;SDS011;62384;53.600;10.040;2023-06-04T01:27:58;3.50;;;1.90;;
74042;SDS011;62384;53.600;10.040;2023-06-04T01:30:26;3.78;;;1.95;;
74042;SDS011;62384;53.600;10.040;2023-06-04T01:32:55;3.03;;;2.30;;
74042;SDS011;62384;53.600;10.040;2023-06-04T01:35:21;3.72;;;2.38;;
74042;SDS011;62384;53.600;10.040;2023-06-04T01:37:47;2.72;;;2.05;;
74042;SDS011;62384;53.600;10.040;2023-06-04T01:40:13;4.60;;;2.40;;
74042;SDS011;62384;53.600;10.040;2023-06-04T01:42:40;3.90;;;2.38;;
74042;SDS011;62384;53.600;10.040;2023-06-04T01:45:06;4.75;;;2.17;;
74042;SDS011;62384;53.600;10.040;2023-06-04T01:47:31;6.18;;;2.15;;
74042;SDS011;62384;53.600;10.040;2023-06-04T01:49:57;5.75;;;2.40;;
74042;SDS011;62384;53.600;10.040;2023-06-04T01:52:22;5.43;;;2.10;;
74042;SDS011;62384;53.600;10.040;2023-06-04T01:54:47;3.25;;;2.00;;
74042;SDS011;62384;53.600;10.040;2023-06-04T01:57:17;4.68;;;2.15;;
74042;SDS011;62384;53.600;10.040;2023-06-04T01:59:45;3.25;;;2.03;;
74042;SDS011;62384;53.600;10.040;2023-06-04T02:02:12;2.97;;;2.03;;
74042;SDS011;62384;53.600;10.040;2023-06-04T02:04:37;4.03;;;2.20;;
74042;SDS011;62384;53.600;10.040;2023-06-04T02:07:06;5.40;;;1.85;;
74042;SDS011;62384;53.600;10.040;2023-06-04T02:09:31;6.20;;;2.08;;
74042;SDS011;62384;53.600;10.040;2023-06-04T02:11:57;4.07;;;2.40;;
74042;SDS011;62384;53.600;10.040;2023-06-04T02:14:22;4.35;;;1.88;;
74042;SDS011;62384;53.600;10.040;2023-06-04T02:16:47;3.70;;;2.22;;
74042;SDS011;62384;53.600;10.040;2023-06-04T02:19:14;3.88;;;2.10;;
74042;SDS011;62384;53.600;10.040;2023-06-04T02:21:40;4.57;;;2.47;;
74042;SDS011;62384;53.600;10.040;2023-06-04T02:24:05;3.30;;;1.98;;
74042;SDS011;62384;53.600;10.040;2023-06-04T02:26:30;5.45;;;2.20;;
74042;SDS011;62384;53.600;10.040;2023-06-04T02:28:56;5.00;;;1.88;;
74042;SDS011;62384;53.600;10.040;2023-06-04T02:31:21;4.90;;;1.90;;
74042;SDS011;62384;53.600;10.040;2023-06-04T02:33:46;4.40;;;2.35;;
74042;SDS011;62384;53.600;10.040;2023-06-04T02:36:11;2.45;;;1.58;;
74042;SDS011;62384;53.600;10.040;2023-06-04T02:38:37;3.67;;;1.80;;
74042;SDS011;62384;53.600;10.040;2023-06-04T02:41:02;5.13;;;2.17;;
74042;SDS011;62384;53.600;10.040;2023-06-04T02:43:28;3.63;;;1.90;;
74042;SDS011;62384;53.600;10.040;2023-06-04T02:45:53;5.35;;;1.80;;
74042;SDS011;62384;53.600;10.040;2023-06-04T02:48:18;3.92;;;2.05;;
74042;SDS011;62384;53.600;10.040;2023-06-04T02:50:43;3.78;;;2.42;;
74042;SDS011;62384;53.600;10.040;2023-06-04T02:53:09;2.65;;;1.50;;
74042;SDS011;62384;53.600;10.040;2023-06-04T02:55:34;5.47;;;1.85;;
74042;SDS011;62384;53.600;10.040;2023-06-04T02:58:01;3.75;;;1.67;;
74042;SDS011;62384;53.600;10.040;2023-06-04T03:00:26;4.55;;;2.08;;
74042;SDS011;62384;53.600;10.040;2023-06-04T03:02:51;2.08;;;1.42;;
74042;SDS011;62384;53.600;10.040;2023-06-04T03:05:16;2.63;;;1.67;;
74042;SDS011;62384;53.600;10.040;2023-06-04T03:07:43;3.83;;;1.90;;
74042;SDS011;62384;53.600;10.040;2023-06-04T03:10:11;3.58;;;1.90;;
74042;SDS011;62384;53.600;10.040;2023-06-04T03:12:37;7.43;;;1.88;;
74042;SDS011;62384;53.600;10.040;2023-06-04T03:15:02;4.22;;;2.03;;
74042;SDS011;62384;53.600;10.040;2023-06-04T03:17:28;5.90;;;2.30;;
74042;SDS011;62384;53.600;10.040;2023-06-04T03:19:56;3.03;;;1.80;;
74042;SDS011;62384;53.600;10.040;2023-06-04T03:22:21;6.22;;;2.08;;
74042;SDS011;62384;53.600;10.040;2023-06-04T03:24:47;2.40;;;1.58;;
74042;SDS011;62384;53.600;10.040;2023-06-04T03:27:12;4.13;;;1.40;;
74042;SDS011;62384;53.600;10.040;2023-06-04T03:29:38;2.97;;;1.58;;
74042;SDS011;62384;53.600;10.040;2023-06-04T03:32:04;3.20;;;1.58;;
74042;SDS011;62384;53.600;10.040;2023-06-04T03:34:29;8.27;;;1.90;;
74042;SDS011;62384;53.600;10.040;2023-06-04T03:36:56;2.65;;;1.33;;
74042;SDS011;62384;53.600;10.040;2023-06-04T03:39:22;4.35;;;1.95;;
74042;SDS011;62384;53.600;10.040;2023-06-04T03:41:47;3.30;;;1.67;;
74042;SDS011;62384;53.600;10.040;2023-06-04T03:44:13;4.07;;;1.80;;
74042;SDS011;62384;53.600;10.040;2023-06-04T03:46:40;3.15;;;1.80;;
74042;SDS011;62384;53.600;10.040;2023-06-04T03:49:05;4.70;;;1.95;;
74042;SDS011;62384;53.600;10.040;2023-06-04T03:51:31;3.40;;;1.55;;
74042;SDS011;62384;53.600;10.040;2023-06-04T03:53:57;4.90;;;1.80;;
74042;SDS011;62384;53.600;10.040;2023-06-04T03:56:23;2.92;;;1.70;;
74042;SDS011;62384;53.600;10.040;2023-06-04T03:58:48;2.78;;;1.52;;
74042;SDS011;62384;53.600;10.040;2023-06-04T04:01:13;8.40;;;1.65;;
74042;SDS011;62384;53.600;10.040;2023-06-04T04:03:39;1.70;;;1.30;;
74042;SDS011;62384;53.600;10.040;2023-06-04T04:06:05;3.67;;;1.50;;
74042;SDS011;62384;53.600;10.040;2023-06-04T04:08:30;2.70;;;1.70;;
74042;SDS011;62384;53.600;10.040;2023-06-04T04:10:59;2.10;;;1.40;;
74042;SDS011;62384;53.600;10.040;2023-06-04T04:13:25;5.05;;;1.40;;
74042;SDS011;62384;53.600;10.040;2023-06-04T04:15:50;5.60;;;1.60;;
74042;SDS011;62384;53.600;10.040;2023-06-04T04:18:17;3.95;;;1.90;;
74042;SDS011;62384;53.600;10.040;2023-06-04T04:20:44;5.03;;;2.05;;
74042;SDS011;62384;53.600;10.040;2023-06-04T04:23:10;3.58;;;2.00;;
74042;SDS011;62384;53.600;10.040;2023-06-04T04:25:36;3.17;;;1.77;;
74042;SDS011;62384;53.600;10.040;2023-06-04T04:28:01;3.58;;;2.22;;
74042;SDS011;62384;53.600;10.040;2023-06-04T04:30:27;6.78;;;2.40;;
74042;SDS011;62384;53.600;10.040;2023-06-04T04:32:53;4.80;;;2.00;;
74042;SDS011;62384;53.600;10.040;2023-06-04T04:35:18;4.10;;;1.95;;
74042;SDS011;62384;53.600;10.040;2023-06-04T04:37:44;5.82;;;2.00;;
74042;SDS011;62384;53.600;10.040;2023-06-04T04:40:10;3.50;;;2.00;;
74042;SDS011;62384;53.600;10.040;2023-06-04T04:42:36;4.03;;;2.00;;
74042;SDS011;62384;53.600;10.040;2023-06-04T04:45:02;3.90;;;1.85;;
74042;SDS011;62384;53.600;10.040;2023-06-04T04:47:27;3.35;;;2.30;;
74042;SDS011;62384;53.600;10.040;2023-06-04T04:49:52;3.13;;;1.23;;
74042;SDS011;62384;53.600;10.040;2023-06-04T04:52:17;3.17;;;1.50;;
74042;SDS011;62384;53.600;10.040;2023-06-04T04:54:43;4.85;;;1.33;;
74042;SDS011;62384;53.600;10.040;2023-06-04T04:57:08;4.13;;;1.83;;
74042;SDS011;62384;53.600;10.040;2023-06-04T04:59:33;6.80;;;1.65;;
74042;SDS011;62384;53.600;10.040;2023-06-04T05:01:59;4.32;;;2.20;;
74042;SDS011;62384;53.600;10.040;2023-06-04T05:04:24;5.45;;;1.88;;
74042;SDS011;62384;53.600;10.040;2023-06-04T05:06:49;5.10;;;1.70;;
74042;SDS011;62384;53.600;10.040;2023-06-04T05:09:14;3.65;;;2.00;;
74042;SDS011;62384;53.600;10.040;2023-06-04T05:11:40;4.38;;;1.80;;
74042;SDS011;62384;53.600;10.040;2023-06-04T05:14:05;6.53;;;2.03;;
74042;SDS011;62384;53.600;10.040;2023-06-04T05:16:31;4.50;;;1.73;;
74042;SDS011;62384;53.600;10.040;2023-06-04T05:18:57;6.25;;;1.92;;
74042;SDS011;62384;53.600;10.040;2023-06-04T05:21:22;5.85;;;1.50;;
74042;SDS011;62384;53.600;10.040;2023-06-04T05:23:47;4.65;;;1.83;;
74042;SDS011;62384;53.600;10.040;2023-06-04T05:26:13;6.35;;;1.83;;
74042;SDS011;62384;53.600;10.040;2023-06-04T05:28:39;6.30;;;1.70;;
74042;SDS011;62384;53.600;10.040;2023-06-04T05:31:08;5.00;;;1.48;;
74042;SDS011;62384;53.600;10.040;2023-06-04T05:33:34;2.40;;;1.25;;
74042;SDS011;62384;53.600;10.040;2023-06-04T05:36:00;4.00;;;1.95;;
74042;SDS011;62384;53.600;10.040;2023-06-04T05:38:26;5.50;;;1.70;;
74042;SDS011;62384;53.600;10.040;2023-06-04T05:40:51;3.03;;;1.30;;
74042;SDS011;62384;53.600;10.040;2023-06-04T05:43:18;5.25;;;2.25;;
74042;SDS011;62384;53.600;10.040;2023-06-04T05:45:44;6.65;;;1.92;;
74042;SDS011;62384;53.600;10.040;2023-06-04T05:48:09;3.38;;;1.55;;
74042;SDS011;62384;53.600;10.040;2023-06-04T05:50:34;5.28;;;1.75;;
74042;SDS011;62384;53.600;10.040;2023-06-04T05:52:59;7.82;;;1.60;;
74042;SDS011;62384;53.600;10.040;2023-06-04T05:55:25;4.75;;;1.45;;
74042;SDS011;62384;53.600;10.040;2023-06-04T05:57:50;2.75;;;1.40;;
74042;SDS011;62384;53.600;10.040;2023-06-04T06:00:18;5.78;;;1.48;;
74042;SDS011;62384;53.600;10.040;2023-06-04T06:02:44;3.92;;;1.63;;
74042;SDS011;62384;53.600;10.040;2023-06-04T06:05:10;8.40;;;1.50;;
74042;SDS011;62384;53.600;10.040;2023-06-04T06:07:35;4.40;;;1.65;;
74042;SDS011;62384;53.600;10.040;2023-06-04T06:10:01;8.50;;;1.42;;
74042;SDS011;62384;53.600;10.040;2023-06-04T06:12:27;3.15;;;1.70;;
74042;SDS011;62384;53.600;10.040;2023-06-04T06:14:52;6.05;;;1.45;;
74042;SDS011;62384;53.600;10.040;2023-06-04T06:17:18;2.50;;;1.20;;
74042;SDS011;62384;53.600;10.040;2023-06-04T06:19:43;4.65;;;1.55;;
74042;SDS011;62384;53.600;10.040;2023-06-04T06:22:08;2.67;;;1.10;;
74042;SDS011;62384;53.600;10.040;2023-06-04T06:24:34;4.32;;;1.33;;
74042;SDS011;62384;53.600;10.040;2023-06-04T06:26:59;3.83;;;0.80;;
74042;SDS011;62384;53.600;10.040;2023-06-04T06:29:24;2.67;;;1.30;;
74042;SDS011;62384;53.600;10.040;2023-06-04T06:31:50;2.88;;;1.30;;
74042;SDS011;62384;53.600;10.040;2023-06-04T06:34:15;5.60;;;1.23;;
74042;SDS011;62384;53.600;10.040;2023-06-04T06:36:41;6.78;;;1.30;;
74042;SDS011;62384;53.600;10.040;2023-06-04T06:39:06;5.80;;;1.52;;
74042;SDS011;62384;53.600;10.040;2023-06-04T06:41:32;5.25;;;1.50;;
74042;SDS011;62384;53.600;10.040;2023-06-04T06:43:57;4.63;;;1.10;;
74042;SDS011;62384;53.600;10.040;2023-06-04T06:46:22;3.65;;;1.13;;
74042;SDS011;62384;53.600;10.040;2023-06-04T06:48:48;4.72;;;1.20;;
74042;SDS011;62384;53.600;10.040;2023-06-04T06:51:14;5.78;;;0.95;;
74042;SDS011;62384;53.600;10.040;2023-06-04T06:53:39;2.35;;;0.90;;
74042;SDS011;62384;53.600;10.040;2023-06-04T06:56:04;3.30;;;0.93;;
74042;SDS011;62384;53.600;10.040;2023-06-04T06:58:30;1.73;;;0.88;;
74042;SDS011;62384;53.600;10.040;2023-06-04T07:00:55;3.67;;;1.20;;
74042;SDS011;62384;53.600;10.040;2023-06-04T07:03:21;3.20;;;1.30;;
74042;SDS011;62384;53.600;10.040;2023-06-04T07:05:47;4.47;;;1.40;;
74042;SDS011;62384;53.600;10.040;2023-06-04T07:08:12;4.53;;;1.20;;
74042;SDS011;62384;53.600;10.040;2023-06-04T07:10:37;1.73;;;1.00;;
74042;SDS011;62384;53.600;10.040;2023-06-04T07:13:03;4.40;;;1.10;;
74042;SDS011;62384;53.600;10.040;2023-06-04T07:15:28;2.83;;;0.88;;
74042;SDS011;62384;53.600;10.040;2023-06-04T07:17:53;4.05;;;1.17;;
74042;SDS011;62384;53.600;10.040;2023-06-04T07:20:19;2.88;;;1.20;;
74042;SDS011;62384;53.600;10.040;2023-06-04T07:22:44;3.05;;;0.95;;
74042;SDS011;62384;53.600;10.040;2023-06-04T07:25:09;3.55;;;1.17;;
74042;SDS011;62384;53.600;10.040;2023-06-04T07:27:34;3.05;;;1.05;;
74042;SDS011;62384;53.600;10.040;2023-06-04T07:30:00;11.48;;;1.98;;
74042;SDS011;62384;53.600;10.040;2023-06-04T07:32:25;2.05;;;0.80;;
74042;SDS011;62384;53.600;10.040;2023-06-04T07:34:51;3.25;;;0.80;;
74042;SDS011;62384;53.600;10.040;2023-06-04T07:37:16;3.58;;;1.33;;
74042;SDS011;62384;53.600;10.040;2023-06-04T07:39:41;1.67;;;0.85;;
74042;SDS011;62384;53.600;10.040;2023-06-04T07:42:06;2.67;;;0.90;;
74042;SDS011;62384;53.600;10.040;2023-06-04T07:44:32;2.88;;;1.17;;
74042;SDS011;62384;53.600;10.040;2023-06-04T07:46:57;3.63;;;1.05;;
74042;SDS011;62384;53.600;10.040;2023-06-04T07:49:23;3.25;;;1.25;;
74042;SDS011;62384;53.600;10.040;2023-06-04T07:51:48;4.35;;;1.58;;
74042;SDS011;62384;53.600;10.040;2023-06-04T07:54:13;4.18;;;0.93;;
74042;SDS011;62384;53.600;10.040;2023-06-04T07:56:39;6.80;;;2.17;;
74042;SDS011;62384;53.600;10.040;2023-06-04T07:59:06;1.98;;;1.02;;
74042;SDS011;62384;53.600;10.040;2023-06-04T08:01:31;4.85;;;1.08;;
74042;SDS011;62384;53.600;10.040;2023-06-04T08:03:57;6.18;;;1.30;;
74042;SDS011;62384;53.600;10.040;2023-06-04T08:06:23;2.17;;;1.55;;
74042;SDS011;62384;53.600;10.040;2023-06-04T08:08:49;2.35;;;1.10;;
74042;SDS011;62384;53.600;10.040;2023-06-04T08:11:15;3.13;;;0.95;;
74042;SDS011;62384;53.600;10.040;2023-06-04T08:13:40;2.67;;;0.82;;
74042;SDS011;62384;53.600;10.040;2023-06-04T08:16:06;5.10;;;1.75;;
74042;SDS011;62384;53.600;10.040;2023-06-04T08:18:32;1.77;;;0.80;;
74042;SDS011;62384;53.600;10.040;2023-06-04T08:20:57;4.35;;;0.90;;
74042;SDS011;62384;53.600;10.040;2023-06-04T08:23:25;5.88;;;2.10;;
74042;SDS011;62384;53.600;10.040;2023-06-04T08:25:50;2.58;;;1.00;;
74042;SDS011;62384;53.600;10.040;2023-06-04T08:28:15;3.65;;;1.02;;
74042;SDS011;62384;53.600;10.040;2023-06-04T08:30:44;2.00;;;0.93;;
74042;SDS011;62384;53.600;10.040;2023-06-04T08:33:10;2.08;;;0.80;;
74042;SDS011;62384;53.600;10.040;2023-06-04T08:35:35;2.17;;;1.40;;
74042;SDS011;62384;53.600;10.040;2023-06-04T08:38:01;3.35;;;1.67;;
74042;SDS011;62384;53.600;10.040;2023-06-04T08:40:27;1.70;;;0.73;;
74042;SDS011;62384;53.600;10.040;2023-06-04T08:42:52;3.53;;;0.98;;
74042;SDS011;62384;53.600;10.040;2023-06-04T08:45:25;4.32;;;0.90;;
74042;SDS011;62384;53.600;10.040;2023-06-04T08:47:50;2.40;;;0.80;;
74042;SDS011;62384;53.600;10.040;2023-06-04T08:50:17;2.67;;;0.75;;
74042;SDS011;62384;53.600;10.040;2023-06-04T08:52:44;6.72;;;0.95;;
74042;SDS011;62384;53.600;10.040;2023-06-04T08:55:11;1.70;;;0.70;;
74042;SDS011;62384;53.600;10.040;2023-06-04T08:57:39;3.45;;;0.70;;
74042;SDS011;62384;53.600;10.040;2023-06-04T09:00:05;5.28;;;0.82;;
74042;SDS011;62384;53.600;10.040;2023-06-04T09:02:35;4.38;;;0.90;;
74042;SDS011;62384;53.600;10.040;2023-06-04T09:05:03;5.95;;;0.73;;
74042;SDS011;62384;53.600;10.040;2023-06-04T09:07:29;2.45;;;0.65;;
74042;SDS011;62384;53.600;10.040;2023-06-04T09:09:56;2.20;;;0.70;;
74042;SDS011;62384;53.600;10.040;2023-06-04T09:12:24;2.85;;;0.60;;
74042;SDS011;62384;53.600;10.040;2023-06-04T09:14:50;3.83;;;0.60;;
74042;SDS011;62384;53.600;10.040;2023-06-04T09:17:20;2.67;;;0.60;;
74042;SDS011;62384;53.600;10.040;2023-06-04T09:19:46;1.85;;;0.68;;
74042;SDS011;62384;53.600;10.040;2023-06-04T09:22:11;3.20;;;0.57;;
74042;SDS011;62384;53.600;10.040;2023-06-04T09:24:44;2.83;;;0.75;;
74042;SDS011;62384;53.600;10.040;2023-06-04T09:27:21;4.47;;;1.00;;
74042;SDS011;62384;53.600;10.040;2023-06-04T09:32:23;1.77;;;0.65;;
74042;SDS011;62384;53.600;10.040;2023-06-04T09:34:50;0.93;;;0.50;;
74042;SDS011;62384;53.600;10.040;2023-06-04T09:37:16;1.48;;;0.82;;
74042;SDS011;62384;53.600;10.040;2023-06-04T09:39:42;3.22;;;0.77;;
74042;SDS011;62384;53.600;10.040;2023-06-04T09:42:09;2.47;;;0.70;;
74042;SDS011;62384;53.600;10.040;2023-06-04T09:44:42;1.42;;;0.63;;
74042;SDS011;62384;53.600;10.040;2023-06-04T09:47:11;1.98;;;0.60;;
74042;SDS011;62384;53.600;10.040;2023-06-04T09:49:40;1.60;;;0.50;;
74042;SDS011;62384;53.600;10.040;2023-06-04T09:52:06;2.83;;;0.63;;
74042;SDS011;62384;53.600;10.040;2023-06-04T09:54:37;1.33;;;0.57;;
74042;SDS011;62384;53.600;10.040;2023-06-04T09:59:49;1.13;;;0.57;;
74042;SDS011;62384;53.600;10.040;2023-06-04T10:02:20;1.80;;;0.73;;
74042;SDS011;62384;53.600;10.040;2023-06-04T10:04:52;0.98;;;0.40;;
74042;SDS011;62384;53.600;10.040;2023-06-04T10:07:21;1.98;;;0.50;;
74042;SDS011;62384;53.600;10.040;2023-06-04T10:09:47;1.45;;;0.70;;
74042;SDS011;62384;53.600;10.040;2023-06-04T10:12:13;2.58;;;0.93;;
74042;SDS011;62384;53.600;10.040;2023-06-04T10:14:52;2.72;;;0.50;;
74042;SDS011;62384;53.600;10.040;2023-06-04T10:17:22;1.20;;;0.68;;
74042;SDS011;62384;53.600;10.040;2023-06-04T10:19:49;2.30;;;0.75;;
74042;SDS011;62384;53.600;10.040;2023-06-04T10:22:18;3.03;;;0.60;;
74042;SDS011;62384;53.600;10.040;2023-06-04T10:24:44;3.88;;;0.68;;
74042;SDS011;62384;53.600;10.040;2023-06-04T10:27:10;9.30;;;0.70;;
74042;SDS011;62384;53.600;10.040;2023-06-04T10:29:37;1.05;;;0.40;;
74042;SDS011;62384;53.600;10.040;2023-06-04T10:32:03;3.78;;;0.70;;
74042;SDS011;62384;53.600;10.040;2023-06-04T10:34:29;1.75;;;0.50;;
74042;SDS011;62384;53.600;10.040;2023-06-04T10:36:55;2.65;;;0.57;;
74042;SDS011;62384;53.600;10.040;2023-06-04T10:39:30;2.40;;;0.80;;
74042;SDS011;62384;53.600;10.040;2023-06-04T10:42:00;0.85;;;0.40;;
74042;SDS011;62384;53.600;10.040;2023-06-04T10:44:27;1.95;;;0.60;;
74042;SDS011;62384;53.600;10.040;2023-06-04T10:46:54;1.50;;;0.60;;
74042;SDS011;62384;53.600;10.040;2023-06-04T10:49:26;3.05;;;0.68;;
74042;SDS011;62384;53.600;10.040;2023-06-04T10:51:53;1.65;;;0.60;;
74042;SDS011;62384;53.600;10.040;2023-06-04T10:54:24;5.90;;;0.77;;
74042;SDS011;62384;53.600;10.040;2023-06-04T10:56:50;1.60;;;1.00;;
74042;SDS011;62384;53.600;10.040;2023-06-04T10:59:16;1.48;;;0.50;;
74042;SDS011;62384;53.600;10.040;2023-06-04T11:01:43;2.25;;;0.80;;
74042;SDS011;62384;53.600;10.040;2023-06-04T11:04:25;3.25;;;0.90;;
74042;SDS011;62384;53.600;10.040;2023-06-04T11:07:06;3.10;;;1.00;;
74042;SDS011;62384;53.600;10.040;2023-06-04T11:09:35;2.70;;;0.65;;
74042;SDS011;62384;53.600;10.040;2023-06-04T11:12:12;2.40;;;0.45;;
74042;SDS011;62384;53.600;10.040;2023-06-04T11:14:38;3.25;;;0.63;;
74042;SDS011;62384;53.600;10.040;2023-06-04T11:17:10;3.22;;;0.50;;
74042;SDS011;62384;53.600;10.040;2023-06-04T11:19:36;1.80;;;0.52;;
74042;SDS011;62384;53.600;10.040;2023-06-04T11:22:02;1.23;;;0.50;;
74042;SDS011;62384;53.600;10.040;2023-06-04T11:24:27;3.95;;;0.40;;
74042;SDS011;62384;53.600;10.040;2023-06-04T11:26:53;1.52;;;0.65;;
74042;SDS011;62384;53.600;10.040;2023-06-04T11:29:24;2.03;;;0.40;;
74042;SDS011;62384;53.600;10.040;2023-06-04T11:31:49;2.22;;;0.60;;
74042;SDS011;62384;53.600;10.040;2023-06-04T11:34:28;2.00;;;0.70;;
74042;SDS011;62384;53.600;10.040;2023-06-04T11:36:54;4.18;;;0.88;;
74042;SDS011;62384;53.600;10.040;2023-06-04T11:39:22;1.08;;;0.55;;
74042;SDS011;62384;53.600;10.040;2023-06-04T11:41:48;1.73;;;0.47;;
74042;SDS011;62384;53.600;10.040;2023-06-04T11:44:18;0.77;;;0.60;;
74042;SDS011;62384;53.600;10.040;2023-06-04T11:46:44;4.30;;;0.90;;
74042;SDS011;62384;53.600;10.040;2023-06-04T11:49:16;2.35;;;0.93;;
74042;SDS011;62384;53.600;10.040;2023-06-04T11:51:50;1.88;;;0.73;;
74042;SDS011;62384;53.600;10.040;2023-06-04T11:54:17;1.40;;;0.40;;
74042;SDS011;62384;53.600;10.040;2023-06-04T11:56:44;1.75;;;0.60;;
74042;SDS011;62384;53.600;10.040;2023-06-04T11:59:11;1.55;;;0.60;;
74042;SDS011;62384;53.600;10.040;2023-06-04T12:01:39;1.35;;;0.60;;
74042;SDS011;62384;53.600;10.040;2023-06-04T12:04:17;3.75;;;0.60;;
74042;SDS011;62384;53.600;10.040;2023-06-04T12:06:53;2.83;;;0.70;;
74042;SDS011;62384;53.600;10.040;2023-06-04T12:09:24;2.38;;;0.65;;
74042;SDS011;62384;53.600;10.040;2023-06-04T12:12:00;1.63;;;0.77;;
74042;SDS011;62384;53.600;10.040;2023-06-04T12:14:26;1.60;;;0.77;;
74042;SDS011;62384;53.600;10.040;2023-06-04T12:16:55;2.63;;;0.50;;
74042;SDS011;62384;53.600;10.040;2023-06-04T12:19:24;2.10;;;0.85;;
74042;SDS011;62384;53.600;10.040;2023-06-04T12:22:00;2.05;;;0.60;;
74042;SDS011;62384;53.600;10.040;2023-06-04T12:24:27;1.13;;;0.50;;
74042;SDS011;62384;53.600;10.040;2023-06-04T12:27:00;1.63;;;0.60;;
74042;SDS011;62384;53.600;10.040;2023-06-04T12:29:27;2.88;;;0.57;;
74042;SDS011;62384;53.600;10.040;2023-06-04T12:32:00;1.90;;;0.68;;
74042;SDS011;62384;53.600;10.040;2023-06-04T12:34:27;2.72;;;0.60;;
74042;SDS011;62384;53.600;10.040;2023-06-04T12:36:52;2.23;;;0.50;;
74042;SDS011;62384;53.600;10.040;2023-06-04T12:39:17;3.23;;;0.50;;
74042;SDS011;62384;53.600;10.040;2023-06-04T12:41:46;2.83;;;0.80;;
74042;SDS011;62384;53.600;10.040;2023-06-04T12:44:12;1.45;;;0.57;;
74042;SDS011;62384;53.600;10.040;2023-06-04T12:46:37;1.27;;;0.55;;
74042;SDS011;62384;53.600;10.040;2023-06-04T12:49:02;1.88;;;0.60;;
74042;SDS011;62384;53.600;10.040;2023-06-04T12:51:27;4.33;;;0.80;;
74042;SDS011;62384;53.600;10.040;2023-06-04T12:53:53;2.63;;;0.68;;
74042;SDS011;62384;53.600;10.040;2023-06-04T12:56:18;1.40;;;0.50;;
74042;SDS011;62384;53.600;10.040;2023-06-04T12:58:43;6.30;;;0.77;;
74042;SDS011;62384;53.600;10.040;2023-06-04T13:01:09;1.73;;;0.63;;
74042;SDS011;62384;53.600;10.040;2023-06-04T13:03:39;3.92;;;0.70;;
74042;SDS011;62384;53.600;10.040;2023-06-04T13:06:05;2.10;;;0.45;;
74042;SDS011;62384;53.600;10.040;2023-06-04T13:08:31;1.30;;;0.57;;
74042;SDS011;62384;53.600;10.040;2023-06-04T13:10:57;1.38;;;0.52;;
74042;SDS011;62384;53.600;10.040;2023-06-04T13:13:22;3.10;;;0.70;;
74042;SDS011;62384;53.600;10.040;2023-06-04T13:15:48;3.20;;;0.70;;
74042;SDS011;62384;53.600;10.040;2023-06-04T13:18:13;1.42;;;0.52;;
74042;SDS011;62384;53.600;10.040;2023-06-04T13:20:42;2.08;;;0.50;;
74042;SDS011;62384;53.600;10.040;2023-06-04T13:23:07;1.20;;;0.70;;
74042;SDS011;62384;53.600;10.040;2023-06-04T13:25:33;2.10;;;0.50;;
74042;SDS011;62384;53.600;10.040;2023-06-04T13:27:59;3.22;;;1.08;;
74042;SDS011;62384;53.600;10.040;2023-06-04T13:30:28;1.95;;;0.40;;
74042;SDS011;62384;53.600;10.040;2023-06-04T13:32:53;1.80;;;0.77;;
74042;SDS011;62384;53.600;10.040;2023-06-04T13:35:19;1.88;;;0.50;;
74042;SDS011;62384;53.600;10.040;2023-06-04T13:37:44;1.30;;;0.70;;
74042;SDS011;62384;53.600;10.040;2023-06-04T13:40:10;3.85;;;0.90;;
74042;SDS011;62384;53.600;10.040;2023-06-04T13:42:35;0.90;;;0.63;;
74042;SDS011;62384;53.600;10.040;2023-06-04T13:45:01;2.67;;;0.98;;
74042;SDS011;62384;53.600;10.040;2023-06-04T13:47:27;2.28;;;0.50;;
74042;SDS011;62384;53.600;10.040;2023-06-04T13:49:52;2.53;;;0.80;;
74042;SDS011;62384;53.600;10.040;2023-06-04T13:52:18;2.90;;;0.75;;
74042;SDS011;62384;53.600;10.040;2023-06-04T13:54:43;1.25;;;0.70;;
74042;SDS011;62384;53.600;10.040;2023-06-04T13:57:09;0.80;;;0.63;;
74042;SDS011;62384;53.600;10.040;2023-06-04T13:59:37;1.92;;;0.65;;
74042;SDS011;62384;53.600;10.040;2023-06-04T14:02:03;1.80;;;0.50;;
74042;SDS011;62384;53.600;10.040;2023-06-04T14:04:28;2.35;;;0.52;;
74042;SDS011;62384;53.600;10.040;2023-06-04T14:06:54;3.20;;;0.88;;
74042;SDS011;62384;53.600;10.040;2023-06-04T14:09:19;1.38;;;0.57;;
74042;SDS011;62384;53.600;10.040;2023-06-04T14:11:45;4.00;;;0.65;;
74042;SDS011;62384;53.600;10.040;2023-06-04T14:14:15;1.27;;;0.68;;
74042;SDS011;62384;53.600;10.040;2023-06-04T14:16:40;2.58;;;0.93;;
74042;SDS011;62384;53.600;10.040;2023-06-04T14:19:06;1.20;;;0.60;;
74042;SDS011;62384;53.600;10.040;2023-06-04T14:21:31;2.28;;;1.08;;
74042;SDS011;62384;53.600;10.040;2023-06-04T14:23:56;1.23;;;0.80;;
74042;SDS011;62384;53.600;10.040;2023-06-04T14:26:21;3.10;;;1.20;;
74042;SDS011;62384;53.600;10.040;2023-06-04T14:28:47;2.92;;;0.73;;
74042;SDS011;62384;53.600;10.040;2023-06-04T14:31:12;1.38;;;0.80;;
74042;SDS011;62384;53.600;10.040;2023-06-04T14:33:38;1.17;;;0.63;;
74042;SDS011;62384;53.600;10.040;2023-06-04T14:36:03;1.48;;;0.80;;
74042;SDS011;62384;53.600;10.040;2023-06-04T14:38:29;4.35;;;0.70;;
74042;SDS011;62384;53.600;10.040;2023-06-04T14:40:54;2.22;;;0.70;;